Time;durP1;ratioP1;P1;durP2;ratioP2;P2;SDS_P1;SDS_P2;PMS_P1;PMS_P2;Temp;Humidity;BMP_temperature;BMP_pressure;BME280_temperature;BME280_humidity;BME280_pressure;Samples;Min_cycle;Max_cycle;Signal;HPM_P1;HPM_P2
2022/09/10 00:00:55;;;;;;;0.10;0.10;;;;;;;18.96;70.73;100876.28;5019867;28;21560;-74
2022/09/10 00:03:22;;;;;;;0.20;0.20;;;;;;;18.99;70.79;100881.50;5027338;28;20025;-75
2022/09/10 00:05:49;;;;;;;0.13;0.13;;;;;;;18.96;70.66;100887.00;5024017;28;20037;-75
2022/09/10 00:08:16;;;;;;;0.43;0.43;;;;;;;18.96;70.88;100881.63;5024839;28;20502;-75
2022/09/10 00:10:45;;;;;;;0.10;0.10;;;;;;;18.99;70.28;100877.91;5023942;28;20403;-75
2022/09/10 00:13:14;;;;;;;0.13;0.13;;;;;;;19.00;70.39;100890.41;5031534;28;20056;-75
2022/09/10 00:15:44;;;;;;;0.47;0.47;;;;;;;18.92;70.70;100880.09;5027345;28;20080;-75
2022/09/10 00:18:11;;;;;;;0.10;0.10;;;;;;;18.91;70.81;100876.50;5028090;28;20029;-75
2022/09/10 00:20:55;;;;;;;0.10;0.10;;;;;;;18.98;70.69;100874.38;5029380;28;20108;-75
2022/09/10 00:23:24;;;;;;;0.47;0.47;;;;;;;18.95;70.49;100874.53;5024920;28;20506;-76
2022/09/10 00:25:52;;;;;;;0.10;0.10;;;;;;;18.91;70.56;100873.81;5021377;28;20053;-76
2022/09/10 00:28:20;;;;;;;0.10;0.10;;;;;;;18.92;70.44;100872.03;5025428;28;20037;-75
2022/09/10 00:30:50;;;;;;;0.10;0.10;;;;;;;18.94;70.29;100867.44;5028277;28;20029;-75
2022/09/10 00:33:18;;;;;;;1.08;1.08;;;;;;;18.88;70.59;100870.44;5021301;28;20025;-76
2022/09/10 00:35:45;;;;;;;0.20;0.20;;;;;;;18.89;70.51;100875.72;5022503;28;20029;-75
2022/09/10 00:38:12;;;;;;;0.10;0.10;;;;;;;18.88;70.58;100873.97;5024828;28;20021;-74
2022/09/10 00:40:39;;;;;;;0.30;0.30;;;;;;;18.91;70.29;100873.81;5028121;28;20124;-76
2022/09/10 00:43:17;;;;;;;0.20;0.20;;;;;;;18.96;70.14;100870.91;5028088;28;20037;-74
2022/09/10 00:45:45;;;;;;;0.30;0.30;;;;;;;18.94;70.09;100874.63;5027322;28;20021;-75
2022/09/10 00:48:18;;;;;;;0.17;0.17;;;;;;;18.93;70.18;100876.47;5022349;28;20518;-75
2022/09/10 00:50:47;;;;;;;0.10;0.10;;;;;;;18.89;70.25;100869.47;5024841;28;20037;-75
2022/09/10 00:53:17;;;;;;;0.10;0.10;;;;;;;18.91;70.24;100871.16;5025823;28;20108;-75
2022/09/10 00:55:49;;;;;;;0.30;0.30;;;;;;;18.88;70.08;100879.34;5031103;28;20026;-75
2022/09/10 00:58:17;;;;;;;0.20;0.20;;;;;;;18.89;70.02;100875.72;5024335;28;20040;-73
2022/09/10 01:00:43;;;;;;;0.68;0.68;;;;;;;18.88;69.95;100875.81;5017584;28;20025;-74
2022/09/10 01:03:12;;;;;;;1.75;1.35;;;;;;;18.93;69.79;100873.78;5024025;28;20036;-75
2022/09/10 01:05:42;;;;;;;0.10;0.10;;;;;;;18.88;69.97;100876.66;5019836;28;20025;-75
2022/09/10 01:08:14;;;;;;;0.10;0.10;;;;;;;18.85;69.66;100874.13;5023039;28;20026;-75
2022/09/10 01:16:19;;;;;;;0.10;0.10;;;;;;;18.78;69.47;100867.38;5059694;28;20948;-72
2022/09/10 01:21:48;;;;;;;0.10;0.10;;;;;;;18.74;69.14;100865.78;5058858;28;20412;-75
2022/09/10 01:24:48;;;;;;;0.10;0.10;;;;;;;18.71;69.02;100866.81;5058278;28;20499;-76
2022/09/10 01:27:37;;;;;;;0.10;0.10;;;;;;;18.66;68.91;100870.72;5058247;28;20037;-76
2022/09/10 01:32:55;;;;;;;0.10;0.10;;;;;;;18.52;69.63;100871.47;5016962;28;20412;-73
2022/09/10 01:38:12;;;;;;;0.47;0.47;;;;;;;18.51;69.74;100873.25;5061674;28;20417;-73
2022/09/10 01:40:39;;;;;;;0.10;0.10;;;;;;;18.46;70.17;100867.28;5047846;28;20099;-72
2022/09/10 01:43:08;;;;;;;0.47;0.47;;;;;;;18.51;70.26;100869.72;5045521;28;20426;-73
2022/09/10 01:46:03;;;;;;;0.10;0.10;;;;;;;18.63;70.23;100861.03;5045353;28;20040;-73
2022/09/10 01:57:05;;;;;;;0.40;0.35;;;;;;;18.64;70.58;100860.09;5058102;28;20767;-72
2022/09/10 01:59:59;;;;;;;0.10;0.10;;;;;;;18.59;70.75;100860.31;5048142;28;20033;-74
2022/09/10 02:02:32;;;;;;;0.10;0.10;;;;;;;18.66;70.78;100857.31;5046506;28;20029;-74
2022/09/10 02:05:01;;;;;;;0.10;0.10;;;;;;;18.66;70.92;100857.31;5026558;28;20708;-74
2022/09/10 02:07:29;;;;;;;0.10;0.10;;;;;;;18.60;71.15;100858.50;5025610;28;20030;-73
2022/09/10 02:09:56;;;;;;;0.20;0.20;;;;;;;18.70;71.17;100858.88;5023976;28;20533;-74
2022/09/10 02:12:22;;;;;;;0.10;0.10;;;;;;;18.72;71.38;100863.19;5026527;28;20123;-74
2022/09/10 02:14:52;;;;;;;0.20;0.20;;;;;;;18.75;71.80;100864.84;5024499;28;20091;-74
2022/09/10 02:17:20;;;;;;;1.65;1.55;;;;;;;18.80;71.52;100868.16;5026514;28;20064;-73
2022/09/10 02:19:50;;;;;;;0.10;0.10;;;;;;;18.81;71.77;100863.66;5023169;28;20105;-74
2022/09/10 02:22:18;;;;;;;0.10;0.10;;;;;;;18.83;71.59;100856.38;5023609;28;20029;-74
2022/09/10 02:24:44;;;;;;;0.93;0.88;;;;;;;18.84;71.75;100856.31;5024453;28;20026;-74
2022/09/10 02:27:11;;;;;;;0.30;0.30;;;;;;;18.89;71.58;100850.66;5022950;28;20030;-73
2022/09/10 02:29:38;;;;;;;0.52;0.52;;;;;;;18.88;71.50;100852.50;5023130;28;20022;-72
2022/09/10 02:32:07;;;;;;;0.20;0.20;;;;;;;18.90;71.65;100847.03;5022859;28;20056;-74
2022/09/10 02:34:33;;;;;;;0.68;0.68;;;;;;;18.87;71.28;100847.22;5025743;28;20064;-75
2022/09/10 02:37:01;;;;;;;0.43;0.43;;;;;;;18.86;71.68;100842.81;5024695;28;20120;-74
2022/09/10 02:39:27;;;;;;;1.00;1.00;;;;;;;18.88;71.13;100841.75;5021220;28;20575;-73
2022/09/10 02:41:54;;;;;;;0.00;0.00;;;;;;;18.91;71.04;100838.06;5024597;28;20040;-73
2022/09/10 02:44:20;;;;;;;0.10;0.10;;;;;;;18.88;71.18;100840.91;5022991;28;20029;-75
2022/09/10 02:46:47;;;;;;;0.45;0.30;;;;;;;18.84;71.41;100844.69;5026504;28;20116;-74
2022/09/10 02:49:13;;;;;;;0.10;0.10;;;;;;;18.87;71.42;100840.03;5023856;28;20037;-74
2022/09/10 02:51:41;;;;;;;0.93;0.85;;;;;;;18.89;71.58;100843.50;5024867;28;20076;-72
2022/09/10 02:54:07;;;;;;;0.10;0.10;;;;;;;18.88;71.66;100840.91;5026242;28;20034;-74
2022/09/10 02:56:33;;;;;;;0.82;0.82;;;;;;;18.88;71.75;100841.75;5020553;28;20080;-75
2022/09/10 02:58:59;;;;;;;0.05;0.05;;;;;;;18.96;71.44;100849.41;5027127;28;20080;-75
2022/09/10 03:01:26;;;;;;;0.10;0.10;;;;;;;18.98;71.38;100844.84;5024271;28;20033;-75
2022/09/10 03:03:55;;;;;;;0.10;0.10;;;;;;;19.03;71.34;100850.81;5026163;28;20037;-74
2022/09/10 03:06:22;;;;;;;0.10;0.10;;;;;;;19.04;71.46;100847.19;5021492;28;20044;-75
2022/09/10 03:08:50;;;;;;;0.10;0.10;;;;;;;19.06;71.39;100849.78;5012452;28;21055;-75
2022/09/10 03:11:17;;;;;;;0.10;0.10;;;;;;;19.06;71.46;100847.94;5013814;28;20125;-74
2022/09/10 03:13:44;;;;;;;0.10;0.10;;;;;;;19.08;71.58;100835.31;5013113;28;20037;-74
2022/09/10 03:16:12;;;;;;;0.10;0.10;;;;;;;19.08;71.61;100835.31;5014257;28;20053;-74
2022/09/10 03:18:40;;;;;;;0.20;0.20;;;;;;;19.12;70.93;100833.34;5007302;28;20041;-72
2022/09/10 03:23:48;;;;;;;0.10;0.10;;;;;;;19.06;71.63;100829.16;5058944;28;20411;-74
2022/09/10 03:26:16;;;;;;;2.92;1.08;;;;;;;19.08;71.31;100839.84;5048909;28;20111;-74
2022/09/10 03:28:43;;;;;;;0.35;0.35;;;;;;;19.07;71.06;100836.25;5046341;28;20029;-74
2022/09/10 03:31:10;;;;;;;0.05;0.05;;;;;;;19.05;71.32;100830.13;5044545;28;20051;-73
2022/09/10 03:33:36;;;;;;;0.00;0.00;;;;;;;19.02;71.27;100832.97;5044247;28;20458;-73
2022/09/10 03:36:03;;;;;;;0.47;0.38;;;;;;;19.00;71.44;100839.38;5040414;28;20034;-73
2022/09/10 03:38:29;;;;;;;0.10;0.10;;;;;;;18.94;71.38;100837.91;5043913;28;20032;-73
2022/09/10 03:40:56;;;;;;;0.10;0.10;;;;;;;18.94;71.43;100835.25;5040826;28;20033;-73
2022/09/10 03:43:23;;;;;;;0.10;0.10;;;;;;;18.94;71.14;100840.59;5041424;28;20105;-74
2022/09/10 03:45:50;;;;;;;0.10;0.10;;;;;;;18.90;71.27;100839.00;5041038;28;20072;-74
2022/09/10 03:48:18;;;;;;;0.10;0.10;;;;;;;18.89;71.10;100840.81;5040865;28;20494;-74
2022/09/10 03:50:45;;;;;;;0.20;0.20;;;;;;;18.87;71.17;100840.03;5041060;28;20040;-74
2022/09/10 03:53:13;;;;;;;0.10;0.10;;;;;;;18.84;71.46;100842.00;5041899;28;20029;-74
2022/09/10 03:55:41;;;;;;;0.00;0.00;;;;;;;18.83;71.43;100834.91;5043755;28;20119;-74
2022/09/10 03:58:07;;;;;;;0.10;0.10;;;;;;;18.79;71.58;100831.56;5031408;28;20044;-73
2022/09/10 04:00:34;;;;;;;0.20;0.20;;;;;;;18.78;71.43;100840.53;5045514;28;20076;-73
2022/09/10 04:03:01;;;;;;;0.10;0.10;;;;;;;18.77;71.18;100838.81;5037799;28;20041;-73
2022/09/10 04:05:28;;;;;;;1.90;0.63;;;;;;;18.69;71.59;100836.53;5032372;28;20034;-72
2022/09/10 04:07:57;;;;;;;0.10;0.10;;;;;;;18.70;71.60;100835.56;5040613;28;20033;-74
2022/09/10 04:10:25;;;;;;;0.20;0.20;;;;;;;18.73;71.70;100842.63;5043423;28;20061;-74
2022/09/10 04:12:52;;;;;;;0.30;0.25;;;;;;;18.76;71.59;100839.75;5039067;28;20040;-73
2022/09/10 04:15:19;;;;;;;0.10;0.10;;;;;;;18.80;71.67;100832.41;5038804;28;20029;-74
2022/09/10 04:17:50;;;;;;;0.10;0.10;;;;;;;18.84;71.75;100836.63;5037357;28;20030;-74
2022/09/10 04:20:17;;;;;;;0.00;0.00;;;;;;;18.82;71.67;100830.50;5038527;28;20029;-73
2022/09/10 04:22:43;;;;;;;0.10;0.10;;;;;;;18.81;71.41;100828.78;5036366;28;20116;-74
2022/09/10 04:25:09;;;;;;;0.10;0.10;;;;;;;18.82;71.55;100836.72;5040056;28;20119;-74
2022/09/10 04:27:35;;;;;;;0.40;0.40;;;;;;;18.80;71.63;100833.25;5037866;28;20029;-73
2022/09/10 04:30:01;;;;;;;0.10;0.10;;;;;;;18.81;71.66;100835.00;5033294;28;20050;-73
2022/09/10 04:32:27;;;;;;;0.10;0.10;;;;;;;18.81;71.33;100839.50;5039669;28;20025;-73
2022/09/10 04:34:53;;;;;;;0.20;0.20;;;;;;;18.83;71.62;100843.84;5034357;28;20116;-74
2022/09/10 04:37:20;;;;;;;0.10;0.10;;;;;;;18.83;71.76;100846.53;5029409;28;20060;-73
2022/09/10 04:39:46;;;;;;;0.20;0.20;;;;;;;18.84;71.64;100847.38;5033411;28;20149;-72
2022/09/10 04:42:19;;;;;;;0.10;0.10;;;;;;;18.80;71.74;100859.25;5033583;28;20484;-74
2022/09/10 04:44:45;;;;;;;0.10;0.10;;;;;;;18.85;71.58;100857.16;5027963;28;20025;-74
2022/09/10 04:47:12;;;;;;;0.15;0.15;;;;;;;18.89;71.57;100861.41;5029895;28;20033;-74
2022/09/10 04:49:38;;;;;;;0.10;0.10;;;;;;;18.86;71.71;100858.91;5026785;28;20083;-74
2022/09/10 04:52:04;;;;;;;0.10;0.10;;;;;;;18.93;71.62;100854.97;5027749;28;20039;-74
2022/09/10 04:54:32;;;;;;;0.10;0.10;;;;;;;18.95;71.57;100855.75;5031016;28;20728;-74
2022/09/10 04:56:59;;;;;;;0.40;0.40;;;;;;;19.01;71.23;100858.09;5026827;28;20026;-74
2022/09/10 04:59:26;;;;;;;0.10;0.10;;;;;;;19.04;71.12;100857.94;5028289;28;20073;-74
2022/09/10 05:01:52;;;;;;;0.10;0.10;;;;;;;19.04;71.20;100862.41;5027797;28;20173;-74
2022/09/10 05:04:19;;;;;;;0.10;0.10;;;;;;;19.03;71.44;100855.34;5023994;28;20115;-73
2022/09/10 05:06:47;;;;;;;0.10;0.10;;;;;;;19.03;71.35;100856.19;5025509;28;20092;-74
2022/09/10 05:09:13;;;;;;;0.10;0.10;;;;;;;19.02;71.43;100859.81;5025353;28;20610;-72
2022/09/10 05:11:39;;;;;;;0.40;0.40;;;;;;;18.93;71.67;100857.66;5021756;28;20048;-73
2022/09/10 05:14:06;;;;;;;0.10;0.10;;;;;;;18.95;71.43;100863.78;5024669;28;20034;-74
2022/09/10 05:16:32;;;;;;;0.10;0.10;;;;;;;18.94;71.46;100862.09;5027435;28;20079;-73
2022/09/10 05:18:58;;;;;;;0.10;0.10;;;;;;;18.90;71.22;100857.78;5020640;28;20038;-73
2022/09/10 05:21:25;;;;;;;0.10;0.10;;;;;;;18.91;71.34;100867.59;5023892;28;20064;-74
2022/09/10 05:23:51;;;;;;;0.10;0.10;;;;;;;18.88;71.50;100865.94;5026328;28;20122;-74
2022/09/10 05:26:17;;;;;;;0.10;0.10;;;;;;;18.90;71.34;100868.53;5024796;28;20037;-74
2022/09/10 05:28:43;;;;;;;0.10;0.10;;;;;;;18.91;71.25;100863.09;5027250;28;20044;-74
2022/09/10 05:31:09;;;;;;;0.10;0.10;;;;;;;18.94;71.25;100866.56;5026937;28;20458;-74
2022/09/10 05:33:39;;;;;;;0.10;0.10;;;;;;;18.93;71.31;100865.72;5021650;28;20412;-74
2022/09/10 05:36:08;;;;;;;0.10;0.10;;;;;;;18.92;71.52;100869.34;5024689;28;20032;-74
2022/09/10 05:38:34;;;;;;;0.10;0.10;;;;;;;18.95;71.47;100865.63;5024838;28;20033;-72
2022/09/10 05:41:00;;;;;;;0.17;0.17;;;;;;;18.97;71.20;100867.28;5029450;28;20116;-74
2022/09/10 05:43:27;;;;;;;0.10;0.10;;;;;;;18.98;71.27;100874.38;5029518;28;20072;-74
2022/09/10 05:45:53;;;;;;;0.10;0.10;;;;;;;19.02;71.24;100878.63;5030185;28;20033;-74
2022/09/10 05:48:20;;;;;;;0.10;0.10;;;;;;;18.98;71.65;100873.50;5027566;28;20033;-73
2022/09/10 05:50:46;;;;;;;0.10;0.10;;;;;;;19.05;71.38;100875.78;5032668;28;20025;-73
2022/09/10 05:53:13;;;;;;;0.10;0.10;;;;;;;19.10;71.36;100877.34;5030068;28;20084;-73
2022/09/10 05:55:39;;;;;;;0.20;0.20;;;;;;;19.13;71.55;100885.22;5031931;28;20037;-74
2022/09/10 05:58:05;;;;;;;0.10;0.10;;;;;;;19.18;71.29;100892.06;5033183;28;20796;-74
2022/09/10 06:00:32;;;;;;;0.00;0.00;;;;;;;19.24;71.23;100890.88;5028136;28;20623;-73
2022/09/10 06:02:58;;;;;;;0.10;0.10;;;;;;;19.25;71.10;100892.59;5024622;28;20025;-74
2022/09/10 06:05:24;;;;;;;0.10;0.10;;;;;;;19.26;71.34;100894.31;5026899;28;20202;-73
2022/09/10 06:07:50;;;;;;;0.00;0.00;;;;;;;19.24;71.15;100890.88;5028195;28;20083;-73
2022/09/10 06:10:17;;;;;;;0.10;0.10;;;;;;;19.22;71.23;100893.63;5025663;28;20119;-74
2022/09/10 06:12:48;;;;;;;0.20;0.20;;;;;;;19.27;71.16;100892.53;5021844;28;20141;-74
2022/09/10 06:15:15;;;;;;;0.10;0.10;;;;;;;19.25;71.25;100892.59;5020633;28;20026;-74
2022/09/10 06:17:41;;;;;;;1.35;0.65;;;;;;;19.29;71.25;100895.97;5021442;28;20491;-73
2022/09/10 06:20:08;;;;;;;0.25;0.25;;;;;;;19.32;71.27;100895.81;5025368;28;20407;-73
2022/09/10 06:22:34;;;;;;;0.93;0.93;;;;;;;19.33;71.41;100895.72;5026739;28;20025;-73
2022/09/10 06:25:00;;;;;;;0.10;0.10;;;;;;;19.39;71.61;100899.91;5020214;28;20781;-74
2022/09/10 06:27:26;;;;;;;0.45;0.45;;;;;;;19.44;71.46;100894.25;5022585;28;20569;-74
2022/09/10 06:29:54;;;;;;;0.22;0.22;;;;;;;19.45;71.17;100902.25;5022338;28;20660;-74
2022/09/10 06:32:20;;;;;;;0.17;0.17;;;;;;;19.51;71.25;100899.19;5022967;28;20506;-74
2022/09/10 06:34:46;;;;;;;1.25;1.17;;;;;;;19.57;71.14;100903.34;5022805;28;20026;-73
2022/09/10 06:37:12;;;;;;;0.10;0.10;;;;;;;19.58;71.61;100904.19;5029685;28;20037;-74
2022/09/10 06:39:38;;;;;;;6.00;2.08;;;;;;;19.61;71.48;100904.03;5027237;28;20526;-74
2022/09/10 06:42:04;;;;;;;0.10;0.10;;;;;;;19.67;71.32;100912.59;5022717;28;20033;-74
2022/09/10 06:44:30;;;;;;;0.52;0.52;;;;;;;19.69;71.39;100918.78;5026450;28;20617;-75
2022/09/10 06:46:57;;;;;;;0.70;0.70;;;;;;;19.73;71.38;100925.69;5024152;28;20029;-74
2022/09/10 06:49:23;;;;;;;0.10;0.10;;;;;;;19.72;71.97;100923.97;5022135;28;20408;-74
2022/09/10 06:51:50;;;;;;;0.20;0.20;;;;;;;19.81;71.82;100930.66;5026391;28;20687;-74
2022/09/10 06:54:17;;;;;;;0.10;0.10;;;;;;;19.89;71.58;100935.63;5022029;28;20017;-74
2022/09/10 06:56:45;;;;;;;0.10;0.10;;;;;;;19.95;71.75;100929.91;5026643;28;20037;-74
2022/09/10 06:59:13;;;;;;;0.10;0.10;;;;;;;19.89;72.36;100930.25;5025100;28;20026;-75
2022/09/10 07:01:40;;;;;;;0.10;0.10;;;;;;;20.01;72.13;100945.66;5026215;28;20053;-74
2022/09/10 07:04:07;;;;;;;0.10;0.10;;;;;;;20.08;71.89;100943.47;5025287;28;20496;-74
2022/09/10 07:06:35;;;;;;;0.10;0.10;;;;;;;20.14;72.09;100945.81;5030805;28;20098;-75
2022/09/10 07:09:02;;;;;;;0.10;0.10;;;;;;;20.22;72.04;100942.66;5025488;28;20044;-74
2022/09/10 07:11:29;;;;;;;0.10;0.10;;;;;;;20.23;71.89;100938.16;5028402;28;20120;-73
2022/09/10 07:13:55;;;;;;;0.10;0.10;;;;;;;20.34;71.43;100952.69;5027187;28;20029;-74
2022/09/10 07:16:24;;;;;;;0.10;0.10;;;;;;;20.32;71.63;100948.38;5028677;28;20033;-72
2022/09/10 07:18:53;;;;;;;0.20;0.20;;;;;;;20.39;71.21;100949.75;5018625;28;20060;-73
2022/09/10 07:21:20;;;;;;;0.10;0.10;;;;;;;20.41;71.29;100957.72;5031740;28;20037;-74
2022/09/10 07:23:47;;;;;;;0.10;0.10;;;;;;;20.46;71.31;100958.31;5029822;28;20033;-73
2022/09/10 07:26:15;;;;;;;0.30;0.30;;;;;;;20.57;71.14;100966.59;5022862;28;20038;-72
2022/09/10 07:28:42;;;;;;;3.83;1.85;;;;;;;20.53;71.46;100959.69;5028586;28;20039;-74
2022/09/10 07:33:49;;;;;;;0.10;0.10;;;;;;;20.67;70.83;100965.09;5084266;27;20953;-75
2022/09/10 07:36:16;;;;;;;0.10;0.10;;;;;;;20.75;70.78;100969.16;5076573;28;20039;-75
2022/09/10 07:38:43;;;;;;;0.10;0.10;;;;;;;20.74;70.76;100975.53;5071694;28;20041;-74
2022/09/10 07:41:12;;;;;;;0.20;0.20;;;;;;;20.80;70.36;100972.47;5072806;28;20035;-73
2022/09/10 07:43:40;;;;;;;0.10;0.10;;;;;;;20.81;70.22;100971.47;5075695;28;20036;-74
2022/09/10 07:46:10;;;;;;;0.10;0.10;;;;;;;20.68;69.93;100968.66;5073082;28;20040;-74
2022/09/10 07:48:37;;;;;;;0.10;0.10;;;;;;;20.66;69.64;100974.13;5078189;28;20032;-74
2022/09/10 07:51:06;;;;;;;0.10;0.10;;;;;;;20.77;69.79;100972.63;5075881;28;20074;-74
2022/09/10 07:53:33;;;;;;;0.38;0.38;;;;;;;20.76;69.92;100973.59;5073946;28;20028;-74
2022/09/10 07:56:03;;;;;;;0.25;0.25;;;;;;;20.82;69.78;100984.88;5077352;28;20044;-73
2022/09/10 07:58:31;;;;;;;0.10;0.10;;;;;;;20.80;69.54;100991.31;5074986;28;20025;-74
2022/09/10 08:00:59;;;;;;;0.10;0.10;;;;;;;20.92;69.23;100984.31;5074942;28;20142;-73
2022/09/10 08:03:27;;;;;;;0.10;0.10;;;;;;;21.05;69.13;100985.28;5077198;28;20565;-73
2022/09/10 08:05:54;;;;;;;0.10;0.10;;;;;;;21.16;69.20;100987.31;5076230;28;20031;-72
2022/09/10 08:08:21;;;;;;;0.10;0.10;;;;;;;21.29;68.97;100988.25;5079217;28;20375;-73
2022/09/10 08:10:48;;;;;;;0.10;0.10;;;;;;;21.40;68.41;100984.03;5073312;28;20029;-75
2022/09/10 08:13:15;;;;;;;0.10;0.10;;;;;;;21.51;68.62;100995.00;5071851;28;20059;-75
2022/09/10 08:15:43;;;;;;;0.10;0.10;;;;;;;21.59;68.29;101006.19;5068981;28;20465;-77
2022/09/10 08:18:11;;;;;;;0.10;0.10;;;;;;;21.49;67.64;101016.63;5073252;28;20029;-74
2022/09/10 08:20:38;;;;;;;0.22;0.22;;;;;;;21.33;67.19;101021.28;5073805;28;20040;-74
2022/09/10 08:23:05;;;;;;;0.30;0.30;;;;;;;21.24;67.36;101033.50;5073228;28;20032;-77
2022/09/10 08:25:32;;;;;;;0.13;0.13;;;;;;;21.08;67.32;101040.78;5075404;28;20115;-75
2022/09/10 08:27:59;;;;;;;0.20;0.20;;;;;;;20.91;67.71;101041.81;5067114;28;20878;-74
2022/09/10 08:30:26;;;;;;;0.57;0.57;;;;;;;20.95;68.34;101051.47;5075409;28;20041;-74
2022/09/10 08:32:53;;;;;;;0.35;0.35;;;;;;;20.90;68.36;101054.41;5076028;28;20028;-73
2022/09/10 08:35:19;;;;;;;0.25;0.25;;;;;;;21.01;68.79;101060.03;5069323;28;20098;-75
2022/09/10 08:37:46;;;;;;;0.10;0.10;;;;;;;21.17;68.70;101070.75;5074235;28;20111;-75
2022/09/10 08:40:13;;;;;;;0.20;0.20;;;;;;;21.23;68.27;101074.88;5074550;28;20073;-77
2022/09/10 08:42:48;;;;;;;0.10;0.10;;;;;;;21.34;68.23;101080.47;5075381;28;20036;-74
2022/09/10 08:45:32;;;;;;;2.28;1.08;;;;;;;21.39;67.77;101080.19;5055517;28;20041;-74
2022/09/10 08:53:53;;;;;;;0.20;0.20;;;;;;;21.50;67.10;101084.91;5071009;27;20416;-72
2022/09/10 08:56:22;;;;;;;0.20;0.20;;;;;;;21.52;67.36;101091.09;5055962;28;20473;-73
2022/09/10 08:58:58;;;;;;;0.85;0.60;;;;;;;21.59;66.98;101092.44;5062180;28;20036;-73
2022/09/10 09:04:21;;;;;;;0.22;0.22;;;;;;;21.68;66.48;101090.16;5094262;27;20931;-72
2022/09/10 09:06:56;;;;;;;0.55;0.55;;;;;;;21.61;64.99;101092.38;5084070;28;20177;-73
2022/09/10 09:09:22;;;;;;;0.30;0.30;;;;;;;21.49;64.42;101097.50;5084230;28;20042;-74
2022/09/10 09:15:02;;;;;;;0.30;0.30;;;;;;;21.69;65.55;101091.88;5037220;28;20430;-73
2022/09/10 09:17:59;;;;;;;0.10;0.10;;;;;;;21.87;64.78;101089.84;5033062;28;20037;-74
2022/09/10 09:20:41;;;;;;;0.38;0.38;;;;;;;21.97;65.01;101108.03;5039367;28;20116;-73
2022/09/10 09:23:37;;;;;;;0.30;0.30;;;;;;;22.02;64.32;101104.19;5038344;28;20268;-75
2022/09/10 09:26:12;;;;;;;0.20;0.20;;;;;;;21.89;64.08;101101.41;5034202;28;20065;-73
2022/09/10 09:29:06;;;;;;;0.60;0.35;;;;;;;21.85;64.03;101106.13;5030953;28;20061;-76
2022/09/10 09:31:43;;;;;;;0.10;0.10;;;;;;;21.88;64.66;101107.75;5029914;28;20415;-76
2022/09/10 09:34:34;;;;;;;0.63;0.63;;;;;;;22.00;64.38;101111.53;5035538;28;20044;-76
2022/09/10 09:37:03;;;;;;;0.52;0.52;;;;;;;22.25;64.61;101111.66;5036964;28;20119;-75
2022/09/10 09:39:37;;;;;;;0.10;0.10;;;;;;;22.46;64.45;101116.66;5039657;28;20193;-76
2022/09/10 09:42:28;;;;;;;0.10;0.10;;;;;;;22.62;61.81;101113.81;5034971;28;20040;-76
2022/09/10 09:45:06;;;;;;;0.20;0.20;;;;;;;22.74;61.47;101122.91;5037988;28;20079;-76
2022/09/10 09:47:33;;;;;;;0.10;0.10;;;;;;;22.86;62.24;101127.50;5038118;28;20033;-76
2022/09/10 09:49:59;;;;;;;0.30;0.30;;;;;;;22.96;62.38;101121.47;5037832;28;20026;-76
2022/09/10 09:52:30;;;;;;;0.47;0.47;;;;;;;22.87;60.63;101123.81;5039665;28;20525;-76
2022/09/10 09:55:02;;;;;;;0.13;0.13;;;;;;;22.94;61.93;101130.56;5033868;28;20037;-76
2022/09/10 09:57:28;;;;;;;0.00;0.00;;;;;;;22.92;60.16;101132.47;5037104;28;20041;-76
2022/09/10 09:59:54;;;;;;;0.10;0.10;;;;;;;23.09;61.04;101133.16;5036330;28;20105;-75
2022/09/10 10:02:24;;;;;;;0.10;0.10;;;;;;;23.08;60.61;101132.31;5041527;28;20041;-76
2022/09/10 10:05:04;;;;;;;0.10;0.10;;;;;;;23.15;60.96;101134.59;5036557;28;20562;-74
2022/09/10 10:07:32;;;;;;;0.10;0.10;;;;;;;23.15;60.60;101132.75;5033016;28;20025;-73
2022/09/10 10:10:01;;;;;;;0.10;0.10;;;;;;;23.25;59.17;101128.50;5033307;28;20025;-76
2022/09/10 10:12:31;;;;;;;0.10;0.10;;;;;;;23.32;58.38;101136.16;5034551;28;20029;-75
2022/09/10 10:14:59;;;;;;;0.20;0.20;;;;;;;23.48;58.89;101138.66;5032585;28;20037;-76
2022/09/10 10:20:13;;;;;;;0.10;0.10;;;;;;;23.61;56.60;101142.22;5066399;27;20157;-74
2022/09/10 10:22:41;;;;;;;0.30;0.30;;;;;;;23.53;56.68;101141.91;5046592;28;20521;-74
2022/09/10 10:25:47;;;;;;;0.10;0.10;;;;;;;23.52;57.39;101146.44;5050833;28;20041;-74
2022/09/10 10:28:24;;;;;;;0.10;0.10;;;;;;;23.37;56.55;101158.34;5049129;28;20041;-74
2022/09/10 10:30:53;;;;;;;0.32;0.32;;;;;;;23.51;57.73;101158.22;5047469;28;20461;-74
2022/09/10 10:33:27;;;;;;;0.43;0.43;;;;;;;23.69;58.26;101155.19;5043429;28;20123;-75
2022/09/10 10:36:11;;;;;;;0.05;0.05;;;;;;;23.67;56.29;101162.59;5045313;28;20103;-74
2022/09/10 10:38:41;;;;;;;0.10;0.10;;;;;;;23.56;58.12;101166.91;5041925;28;20475;-76
2022/09/10 10:44:11;;;;;;;0.00;0.00;;;;;;;23.43;57.92;101180.41;5095388;27;20407;-74
2022/09/10 10:49:35;;;;;;;0.25;0.25;;;;;;;23.44;57.38;101186.69;5098553;27;20405;-74
2022/09/10 10:54:53;;;;;;;0.10;0.10;;;;;;;23.58;55.78;101189.28;5095835;27;20916;-73
2022/09/10 11:00:05;;;;;;;0.10;0.10;;;;;;;23.84;56.37;101185.72;5039787;28;20412;-75
2022/09/10 11:02:49;;;;;;;0.17;0.17;;;;;;;23.87;55.34;101180.09;5026179;28;20041;-74
2022/09/10 11:07:57;;;;;;;0.10;0.10;;;;;;;23.47;57.00;101200.00;5043699;28;20416;-74
2022/09/10 11:10:44;;;;;;;0.93;0.90;;;;;;;23.40;57.19;101199.56;5044878;28;20033;-75
2022/09/10 11:16:15;;;;;;;0.10;0.10;;;;;;;23.75;57.88;101195.34;5043717;28;20811;-74
2022/09/10 11:18:49;;;;;;;0.10;0.10;;;;;;;24.00;56.43;101204.47;5038441;28;20104;-75
2022/09/10 11:24:13;;;;;;;0.20;0.20;;;;;;;24.25;54.97;101202.72;5058925;28;20411;-75
2022/09/10 11:30:04;;;;;;;0.00;0.00;;;;;;;24.37;54.54;101194.59;5107615;27;20410;-74
2022/09/10 11:32:41;;;;;;;0.10;0.10;;;;;;;24.41;54.37;101197.06;5108906;28;21143;-74
2022/09/10 11:40:34;;;;;;;0.55;0.55;;;;;;;23.79;52.72;101223.06;5086478;27;20453;-76
2022/09/10 11:43:11;;;;;;;0.10;0.10;;;;;;;23.73;54.60;101218.97;5084480;28;20118;-76
2022/09/10 11:45:51;;;;;;;0.10;0.10;;;;;;;23.83;52.47;101208.38;5084467;28;20031;-76
2022/09/10 11:51:18;;;;;;;0.00;0.00;;;;;;;24.55;53.46;101219.44;5072130;27;20410;-74
2022/09/10 11:53:44;;;;;;;0.10;0.10;;;;;;;24.64;53.15;101220.59;5065037;28;20049;-76
2022/09/10 11:56:45;;;;;;;0.10;0.10;;;;;;;24.52;51.43;101222.41;5076044;28;20063;-75
2022/09/10 12:04:47;;;;;;;0.20;0.20;;;;;;;24.04;53.63;101233.06;5091107;27;20371;-74
2022/09/10 12:07:28;;;;;;;0.03;0.03;;;;;;;23.97;53.22;101231.78;5095531;28;20114;-74
2022/09/10 12:10:34;;;;;;;0.00;0.00;;;;;;;24.26;53.64;101234.25;5099227;28;20043;-74
2022/09/10 12:13:00;;;;;;;0.30;0.30;;;;;;;24.45;53.68;101231.94;5093081;28;20405;-75
2022/09/10 12:15:32;;;;;;;0.08;0.08;;;;;;;24.70;53.30;101227.47;5093194;28;20078;-73
2022/09/10 12:18:13;;;;;;;0.20;0.20;;;;;;;25.03;52.61;101231.34;5091702;28;20040;-74
2022/09/10 12:21:01;;;;;;;0.13;0.13;;;;;;;25.30;52.21;101230.25;5089218;28;20043;-74
2022/09/10 12:23:34;;;;;;;0.08;0.08;;;;;;;25.48;49.35;101238.81;5096333;28;20386;-76
2022/09/10 12:26:08;;;;;;;0.00;0.00;;;;;;;25.71;50.66;101237.06;5092726;28;20111;-76
2022/09/10 12:31:19;;;;;;;0.15;0.15;;;;;;;25.76;50.91;101240.25;5094442;27;20404;-74
2022/09/10 12:39:24;;;;;;;0.10;0.10;;;;;;;25.39;48.55;101234.97;5074172;27;20410;-74
2022/09/10 12:49:53;;;;;;;0.32;0.32;;;;;;;24.35;52.14;101253.41;5078462;28;20357;-74
2022/09/10 12:57:59;;;;;;;1.33;0.73;;;;;;;24.99;51.79;101257.81;5114938;27;20386;-73
2022/09/10 13:00:31;;;;;;;0.00;0.00;;;;;;;25.04;50.90;101260.19;5113370;28;20101;-74
2022/09/10 13:21:54;;;;;;;0.20;0.20;;;;;;;24.37;52.00;101285.78;5064641;28;20406;-75
2022/09/10 13:30:09;;;;;;;0.00;0.00;;;;;;;23.97;53.78;101280.50;5099595;27;20354;-74
2022/09/10 13:32:45;;;;;;;0.05;0.05;;;;;;;24.06;52.23;101277.13;5101487;28;20070;-74
2022/09/10 13:41:09;;;;;;;0.10;0.10;;;;;;;25.09;50.52;101276.97;5087095;27;20409;-74
2022/09/10 13:46:21;;;;;;;0.35;0.35;;;;;;;25.47;48.59;101278.66;5101243;27;20396;-74
2022/09/10 13:48:59;;;;;;;0.10;0.10;;;;;;;25.48;48.50;101269.56;5079957;28;20025;-75
2022/09/10 13:51:51;;;;;;;0.10;0.10;;;;;;;25.79;49.42;101280.72;5076610;28;20024;-74